createdAt,value
2018-10-09T00:00:09.539Z,7.97
2018-10-09T00:03:12.645Z,9.43
2018-10-09T00:06:15.769Z,9.07
2018-10-09T00:09:18.888Z,7.87
2018-10-09T00:12:21.987Z,8.30
2018-10-09T00:15:25.076Z,9.20
2018-10-09T00:18:28.217Z,9.27
2018-10-09T00:21:31.365Z,9.27
2018-10-09T00:24:34.449Z,11.37
2018-10-09T00:30:47.153Z,9.70
2018-10-09T00:33:50.241Z,11.07
2018-10-09T00:36:53.382Z,12.07
2018-10-09T00:39:56.473Z,10.13
2018-10-09T00:42:59.577Z,11.13
2018-10-09T00:46:02.726Z,10.63
2018-10-09T00:49:06.059Z,8.90
2018-10-09T00:52:09.197Z,11.03
2018-10-09T00:55:12.285Z,10.13
2018-10-09T00:58:15.409Z,9.67
2018-10-09T01:01:18.494Z,12.37
2018-10-09T01:04:21.625Z,7.47
2018-10-09T01:07:24.721Z,12.67
2018-10-09T01:10:27.845Z,11.77
2018-10-09T01:13:30.957Z,12.80
2018-10-09T01:16:34.074Z,11.43
2018-10-09T01:19:37.185Z,9.87
2018-10-09T01:22:40.343Z,9.83
2018-10-09T01:25:43.433Z,11.03
2018-10-09T01:28:46.561Z,15.10
2018-10-09T01:31:49.685Z,14.00
2018-10-09T01:34:52.830Z,17.10
2018-10-09T01:37:55.953Z,20.00
2018-10-09T01:40:59.061Z,27.60
2018-10-09T01:44:02.188Z,20.93
2018-10-09T01:47:05.541Z,21.67
2018-10-09T01:50:08.645Z,20.53
2018-10-09T01:53:11.790Z,20.40
2018-10-09T01:56:15.062Z,19.93
2018-10-09T01:59:18.217Z,22.30
2018-10-09T02:02:21.309Z,21.50
2018-10-09T02:05:24.442Z,20.40
2018-10-09T02:08:27.529Z,20.07
2018-10-09T02:11:30.645Z,18.53
2018-10-09T02:14:33.726Z,18.43
2018-10-09T02:17:36.944Z,21.07
2018-10-09T02:20:40.021Z,18.07
2018-10-09T02:23:43.156Z,15.53
2018-10-09T02:26:46.240Z,19.17
2018-10-09T02:29:49.353Z,23.73
2018-10-09T02:32:52.431Z,20.43
2018-10-09T02:35:55.608Z,17.43
2018-10-09T02:38:58.705Z,18.30
2018-10-09T02:42:01.838Z,21.00
2018-10-09T02:45:05.006Z,24.63
2018-10-09T02:48:08.317Z,18.47
2018-10-09T02:51:11.413Z,19.20
2018-10-09T02:54:14.526Z,16.60
2018-10-09T02:57:17.641Z,19.30
2018-10-09T03:00:20.745Z,21.23
2018-10-09T03:03:24.004Z,26.73
2018-10-09T03:06:27.154Z,25.80
2018-10-09T03:09:30.293Z,24.87
2018-10-09T03:12:33.385Z,31.00
2018-10-09T03:15:36.534Z,32.43
2018-10-09T03:21:49.268Z,30.50
2018-10-09T03:24:52.379Z,28.43
2018-10-09T03:27:55.465Z,27.60
2018-10-09T03:30:58.580Z,26.77
2018-10-09T03:34:01.690Z,30.07
2018-10-09T03:37:04.809Z,31.03
2018-10-09T03:40:07.897Z,29.90
2018-10-09T03:43:11.021Z,30.67
2018-10-09T03:46:14.344Z,28.00
2018-10-09T03:49:17.481Z,28.07
2018-10-09T03:52:20.578Z,30.83
2018-10-09T03:55:23.805Z,33.53
2018-10-09T03:58:26.906Z,29.67
2018-10-09T04:01:30.042Z,32.67
2018-10-09T04:04:33.160Z,34.30
2018-10-09T04:07:36.280Z,38.50
2018-10-09T04:10:39.374Z,38.47
2018-10-09T04:13:42.521Z,42.70
2018-10-09T04:16:45.655Z,40.13
2018-10-09T04:19:49.293Z,38.80
2018-10-09T04:22:52.429Z,41.20
2018-10-09T04:25:55.553Z,40.53
2018-10-09T04:28:58.664Z,41.20
2018-10-09T04:32:01.793Z,44.30
2018-10-09T04:35:04.903Z,42.17
2018-10-09T04:38:08.041Z,40.77
2018-10-09T04:41:11.136Z,36.73
2018-10-09T04:44:14.256Z,40.47
2018-10-09T04:47:17.358Z,39.70
2018-10-09T04:50:20.481Z,38.03
2018-10-09T04:53:23.638Z,39.93
2018-10-09T04:56:26.725Z,39.60
2018-10-09T04:59:29.857Z,38.97
2018-10-09T05:02:32.958Z,35.87
2018-10-09T05:05:36.097Z,37.97
2018-10-09T05:08:51.650Z,37.90
2018-10-09T05:11:54.773Z,35.20
2018-10-09T05:14:57.865Z,37.87
2018-10-09T05:18:00.973Z,37.50
2018-10-09T05:21:04.073Z,36.57
2018-10-09T05:24:07.526Z,34.20
2018-10-09T05:27:10.645Z,35.37
2018-10-09T05:30:13.769Z,40.83
2018-10-09T05:33:16.895Z,40.90
2018-10-09T05:36:19.985Z,39.40
2018-10-09T05:39:23.106Z,42.23
2018-10-09T05:42:26.225Z,38.03
2018-10-09T05:45:29.313Z,36.67
2018-10-09T05:48:32.430Z,36.97
2018-10-09T05:51:35.517Z,38.03
2018-10-09T05:54:39.360Z,39.33
2018-10-09T05:57:42.493Z,43.00
2018-10-09T06:00:45.585Z,41.83
2018-10-09T06:03:48.742Z,38.93
2018-10-09T06:06:51.850Z,38.80
2018-10-09T06:09:54.945Z,43.90
2018-10-09T06:12:58.121Z,45.70
2018-10-09T06:16:01.327Z,42.03
2018-10-09T06:19:04.353Z,36.60
2018-10-09T06:22:07.550Z,31.47
2018-10-09T06:25:10.743Z,29.43
2018-10-09T06:28:13.918Z,29.07
2018-10-09T06:31:17.041Z,25.77
2018-10-09T06:34:20.133Z,26.67
2018-10-09T06:37:23.332Z,32.37
2018-10-09T06:40:26.444Z,44.30
2018-10-09T06:43:29.533Z,36.77
2018-10-09T06:46:32.630Z,26.07
2018-10-09T06:49:35.789Z,21.43
2018-10-09T06:52:38.916Z,21.27
2018-10-09T06:55:41.997Z,21.57
2018-10-09T06:58:45.128Z,20.10
2018-10-09T07:01:48.257Z,20.77
2018-10-09T07:04:51.346Z,21.70
2018-10-09T07:07:54.666Z,19.17
2018-10-09T07:10:58.619Z,19.53
2018-10-09T07:14:07.945Z,19.83
2018-10-09T07:17:11.958Z,19.97
2018-10-09T07:20:16.975Z,22.27
2018-10-09T07:23:21.111Z,21.33
2018-10-09T07:26:25.637Z,21.27
2018-10-09T07:29:35.685Z,21.53
2018-10-09T07:32:41.138Z,19.83
2018-10-09T07:35:45.123Z,21.67
2018-10-09T07:38:51.340Z,21.10
2018-10-09T07:41:54.525Z,20.23
2018-10-09T07:44:57.638Z,20.80
2018-10-09T07:48:00.922Z,19.23
2018-10-09T07:51:04.034Z,17.63
2018-10-09T07:54:07.406Z,17.80
2018-10-09T07:57:10.596Z,19.93
2018-10-09T08:00:13.883Z,20.40
2018-10-09T08:03:17.061Z,18.67
2018-10-09T08:06:20.403Z,18.20
2018-10-09T08:09:23.576Z,17.73
2018-10-09T08:12:26.860Z,17.93
2018-10-09T08:15:30.114Z,18.47
2018-10-09T08:18:33.262Z,17.83
2018-10-09T08:21:42.986Z,19.33
2018-10-09T08:24:46.132Z,17.33
2018-10-09T08:27:49.264Z,18.83
2018-10-09T08:30:52.382Z,20.20
2018-10-09T08:33:55.510Z,18.13
2018-10-09T08:37:00.417Z,17.40
2018-10-09T08:40:03.569Z,18.30
2018-10-09T08:43:06.690Z,21.03
2018-10-09T08:46:09.810Z,18.87
2018-10-09T08:49:12.935Z,16.97
2018-10-09T08:52:16.032Z,17.57
2018-10-09T08:55:19.194Z,17.40
2018-10-09T08:58:22.386Z,19.03
2018-10-09T09:01:25.651Z,17.53
2018-10-09T09:04:34.654Z,14.90
2018-10-09T09:07:37.790Z,17.73
2018-10-09T09:10:40.923Z,16.47
2018-10-09T09:13:44.050Z,17.80
2018-10-09T09:16:59.806Z,16.97
2018-10-09T09:20:02.937Z,15.20
2018-10-09T09:23:06.091Z,16.63
2018-10-09T09:26:09.234Z,17.27
2018-10-09T09:29:12.343Z,17.40
2018-10-09T09:32:15.565Z,15.33
2018-10-09T09:35:18.702Z,13.27
2018-10-09T09:38:21.838Z,14.80
2018-10-09T09:41:24.929Z,14.87
2018-10-09T09:44:28.046Z,14.93
2018-10-09T09:47:31.235Z,14.87
2018-10-09T09:50:34.365Z,14.47
2018-10-09T09:53:37.478Z,15.00
2018-10-09T09:56:40.629Z,14.90
2018-10-09T09:59:43.748Z,16.30
2018-10-09T10:02:46.934Z,12.30
2018-10-09T10:05:50.041Z,12.77
2018-10-09T10:08:53.203Z,12.93
2018-10-09T10:11:56.346Z,13.80
2018-10-09T10:14:59.453Z,18.33
2018-10-09T10:18:02.788Z,13.70
2018-10-09T10:21:06.297Z,13.17
2018-10-09T10:24:09.445Z,15.97
2018-10-09T10:27:12.604Z,14.50
2018-10-09T10:30:15.741Z,13.73
2018-10-09T10:33:18.846Z,18.13
2018-10-09T10:36:22.006Z,13.77
2018-10-09T10:39:25.115Z,14.40
2018-10-09T10:42:28.266Z,13.57
2018-10-09T10:45:31.495Z,14.37
2018-10-09T10:48:34.714Z,16.10
2018-10-09T10:51:38.060Z,18.70
2018-10-09T10:54:41.173Z,17.13
2018-10-09T10:57:44.265Z,15.47
2018-10-09T11:00:50.759Z,16.57
2018-10-09T11:03:54.169Z,19.97
2018-10-09T11:06:57.274Z,17.37
2018-10-09T11:10:00.417Z,18.53
2018-10-09T11:13:03.544Z,16.77
2018-10-09T11:16:07.167Z,17.23
2018-10-09T11:19:10.300Z,16.47
2018-10-09T11:22:13.450Z,15.07
2018-10-09T11:25:20.453Z,14.97
2018-10-09T11:28:23.597Z,15.40
2018-10-09T11:31:26.718Z,13.50
2018-10-09T11:34:29.864Z,19.83
2018-10-09T11:37:32.990Z,12.70
2018-10-09T11:40:36.130Z,14.10
2018-10-09T11:43:39.234Z,13.63
2018-10-09T11:46:42.443Z,13.23
2018-10-09T11:49:45.534Z,13.13
2018-10-09T11:52:48.660Z,15.23
2018-10-09T11:55:51.776Z,15.30
2018-10-09T11:58:54.938Z,13.23
2018-10-09T12:01:58.030Z,14.57
2018-10-09T12:05:02.031Z,13.30
2018-10-09T12:08:05.263Z,14.17
2018-10-09T12:11:08.413Z,13.93
2018-10-09T12:14:12.241Z,17.63
2018-10-09T12:17:15.370Z,12.80
2018-10-09T12:20:18.826Z,16.20
2018-10-09T12:23:21.988Z,13.70
2018-10-09T12:26:25.090Z,16.10
2018-10-09T12:29:28.230Z,12.50
2018-10-09T12:32:31.380Z,12.90
2018-10-09T12:35:34.518Z,13.13
2018-10-09T12:38:37.698Z,14.27
2018-10-09T12:41:41.098Z,11.93
2018-10-09T12:44:44.262Z,12.70
2018-10-09T12:47:47.399Z,12.47
2018-10-09T12:50:50.529Z,11.90
2018-10-09T12:53:53.659Z,13.17
2018-10-09T12:56:56.874Z,12.70
2018-10-09T12:59:59.998Z,11.60
2018-10-09T13:03:03.141Z,11.47
2018-10-09T13:06:06.223Z,11.07
2018-10-09T13:09:10.674Z,10.87
2018-10-09T13:12:13.798Z,11.33
2018-10-09T13:15:16.918Z,11.47
2018-10-09T13:18:20.022Z,11.27
2018-10-09T13:21:23.303Z,12.17
2018-10-09T13:24:28.346Z,13.43
2018-10-09T13:27:31.809Z,12.87
2018-10-09T13:30:35.023Z,13.20
2018-10-09T13:33:38.146Z,13.70
2018-10-09T13:36:41.344Z,12.93
2018-10-09T13:39:44.508Z,11.67
2018-10-09T13:42:47.722Z,13.33
2018-10-09T13:45:50.883Z,13.53
2018-10-09T13:48:54.139Z,12.93
2018-10-09T13:51:57.346Z,14.13
2018-10-09T13:55:00.477Z,12.17
2018-10-09T13:58:03.566Z,13.03
2018-10-09T14:01:06.789Z,16.57
2018-10-09T14:04:09.934Z,13.20
2018-10-09T14:07:13.064Z,14.30
2018-10-09T14:10:16.220Z,14.17
2018-10-09T14:13:19.327Z,15.07
2018-10-09T14:16:22.489Z,13.33
2018-10-09T14:19:25.779Z,13.73
2018-10-09T14:22:28.974Z,13.13
2018-10-09T14:25:32.022Z,13.73
2018-10-09T14:28:35.131Z,13.43
2018-10-09T14:31:38.267Z,15.63
2018-10-09T14:34:41.411Z,13.23
2018-10-09T14:37:44.514Z,13.70
2018-10-09T14:40:47.626Z,12.23
2018-10-09T14:43:50.867Z,12.13
2018-10-09T14:46:53.967Z,12.73
2018-10-09T14:49:57.122Z,13.57
2018-10-09T14:53:00.332Z,12.40
2018-10-09T14:56:03.497Z,12.33
2018-10-09T14:59:06.624Z,12.30
2018-10-09T15:02:09.727Z,13.70
2018-10-09T15:05:12.829Z,13.07
2018-10-09T15:08:15.942Z,12.30
2018-10-09T15:11:19.028Z,12.53
2018-10-09T15:14:22.143Z,12.80
2018-10-09T15:17:25.292Z,11.30
2018-10-09T15:20:28.390Z,11.40
2018-10-09T15:23:31.479Z,12.93
2018-10-09T15:26:34.593Z,11.77
2018-10-09T15:29:37.726Z,11.23
2018-10-09T15:32:40.822Z,12.60
2018-10-09T15:35:44.052Z,12.30
2018-10-09T15:38:47.233Z,14.63
2018-10-09T15:41:51.096Z,11.23
2018-10-09T15:44:54.945Z,11.50
2018-10-09T15:47:58.710Z,11.43
2018-10-09T15:51:01.991Z,14.23
2018-10-09T15:54:05.713Z,12.97
2018-10-09T15:57:09.094Z,12.03
2018-10-09T16:00:12.250Z,14.67
2018-10-09T16:03:15.374Z,13.90
2018-10-09T16:06:18.477Z,13.80
2018-10-09T16:09:21.594Z,14.83
2018-10-09T16:12:24.701Z,12.63
2018-10-09T16:15:27.963Z,13.23
2018-10-09T16:18:31.096Z,13.07
2018-10-09T16:21:34.266Z,12.77
2018-10-09T16:24:38.102Z,13.50
2018-10-09T16:27:41.269Z,14.73
2018-10-09T16:30:44.365Z,12.67
2018-10-09T16:33:47.494Z,13.47
2018-10-09T16:36:50.615Z,13.13
2018-10-09T16:39:53.726Z,14.07
2018-10-09T16:42:56.838Z,13.90
2018-10-09T16:45:59.969Z,13.50
2018-10-09T16:49:03.114Z,13.10
2018-10-09T16:52:06.502Z,18.13
2018-10-09T16:55:09.625Z,13.07
2018-10-09T16:58:12.738Z,13.73
2018-10-09T17:01:15.878Z,13.33
2018-10-09T17:04:19.006Z,13.87
2018-10-09T17:07:22.142Z,13.43
2018-10-09T17:10:25.286Z,14.07
2018-10-09T17:13:28.401Z,13.77
2018-10-09T17:16:31.514Z,14.37
2018-10-09T17:19:34.682Z,13.93
2018-10-09T17:22:37.808Z,14.63
2018-10-09T17:25:41.019Z,16.10
2018-10-09T17:28:44.131Z,15.80
2018-10-09T17:31:47.265Z,15.97
2018-10-09T17:34:50.398Z,18.87
2018-10-09T17:37:53.510Z,16.33
2018-10-09T17:40:56.626Z,14.27
2018-10-09T17:43:59.786Z,14.47
2018-10-09T17:47:06.999Z,15.43
2018-10-09T17:50:10.154Z,22.93
2018-10-09T17:53:13.292Z,17.83
2018-10-09T17:56:16.422Z,16.57
2018-10-09T17:59:19.538Z,19.07
2018-10-09T18:02:22.653Z,18.03
2018-10-09T18:05:25.826Z,22.13
2018-10-09T18:08:30.067Z,19.10
2018-10-09T18:11:33.226Z,20.77
2018-10-09T18:14:36.406Z,22.10
2018-10-09T18:17:39.490Z,21.57
2018-10-09T18:20:42.610Z,19.50
2018-10-09T18:23:45.830Z,19.23
2018-10-09T18:26:48.936Z,20.27
2018-10-09T18:29:52.241Z,19.17
2018-10-09T18:32:55.738Z,22.70
2018-10-09T18:35:58.502Z,23.83
2018-10-09T18:39:01.646Z,25.33
2018-10-09T18:42:04.863Z,23.10
2018-10-09T18:45:07.951Z,22.53
2018-10-09T18:48:11.061Z,23.43
2018-10-09T18:51:14.239Z,21.93
2018-10-09T18:54:17.357Z,22.57
2018-10-09T18:57:20.496Z,22.47
2018-10-09T19:00:23.598Z,23.33
2018-10-09T19:03:27.593Z,23.27
2018-10-09T19:06:30.794Z,24.07
2018-10-09T19:09:33.997Z,23.50
2018-10-09T19:12:38.130Z,20.73
2018-10-09T19:15:41.374Z,20.40
2018-10-09T19:18:44.526Z,21.70
2018-10-09T19:21:47.698Z,21.43
2018-10-09T19:24:50.810Z,22.90
2018-10-09T19:27:53.974Z,22.87
2018-10-09T19:30:57.093Z,24.37
2018-10-09T19:34:00.227Z,22.33
2018-10-09T19:37:04.744Z,21.00
2018-10-09T19:40:10.911Z,25.00
2018-10-09T19:43:14.055Z,23.30
2018-10-09T19:46:17.200Z,24.93
2018-10-09T19:49:21.546Z,24.27
2018-10-09T19:52:24.678Z,24.57
2018-10-09T19:55:27.814Z,23.40
2018-10-09T19:58:31.009Z,23.13
2018-10-09T20:01:34.135Z,25.67
2018-10-09T20:04:37.715Z,23.63
2018-10-09T20:07:40.851Z,21.67
2018-10-09T20:10:44.010Z,25.43
2018-10-09T20:13:47.125Z,25.33
2018-10-09T20:16:50.254Z,24.20
2018-10-09T20:19:53.397Z,24.20
2018-10-09T20:22:56.515Z,24.47
2018-10-09T20:25:59.629Z,25.77
2018-10-09T20:29:02.946Z,24.83
2018-10-09T20:32:06.054Z,24.07
2018-10-09T20:35:08.958Z,29.23
2018-10-09T20:38:12.102Z,25.97
2018-10-09T20:41:15.402Z,25.83
2018-10-09T20:44:18.512Z,27.47
2018-10-09T20:47:53.264Z,26.87
2018-10-09T20:50:56.398Z,26.80
2018-10-09T20:53:59.549Z,24.53
2018-10-09T20:57:02.651Z,26.47
2018-10-09T21:00:05.782Z,28.33
2018-10-09T21:03:09.434Z,28.80
2018-10-09T21:06:12.697Z,30.83
2018-10-09T21:09:15.754Z,28.70
2018-10-09T21:12:19.080Z,27.57
2018-10-09T21:15:22.190Z,27.57
2018-10-09T21:18:25.349Z,32.53
2018-10-09T21:21:28.473Z,28.90
2018-10-09T21:24:31.591Z,27.40
2018-10-09T21:27:34.730Z,30.70
2018-10-09T21:30:37.830Z,29.27
2018-10-09T21:33:40.957Z,32.53
2018-10-09T21:36:44.068Z,33.77
2018-10-09T21:39:47.182Z,32.63
2018-10-09T21:42:50.331Z,33.23
2018-10-09T21:45:53.477Z,32.47
2018-10-09T21:48:56.571Z,32.90
2018-10-09T21:51:59.705Z,32.73
2018-10-09T21:55:02.796Z,34.37
2018-10-09T21:58:06.340Z,36.57
2018-10-09T22:01:10.495Z,33.67
2018-10-09T22:04:13.656Z,37.30
2018-10-09T22:07:17.930Z,36.80
2018-10-09T22:10:21.064Z,37.00
2018-10-09T22:13:24.290Z,36.43
2018-10-09T22:16:27.410Z,36.43
2018-10-09T22:19:30.562Z,38.13
2018-10-09T22:22:33.707Z,36.20
2018-10-09T22:25:36.828Z,37.43
2018-10-09T22:28:39.930Z,34.93
2018-10-09T22:31:43.039Z,35.47
2018-10-09T22:34:46.610Z,37.47
2018-10-09T22:37:49.781Z,39.03
2018-10-09T22:40:52.877Z,40.03
2018-10-09T22:43:56.047Z,37.93
2018-10-09T22:46:59.124Z,42.50
2018-10-09T22:50:02.237Z,39.30
2018-10-09T22:53:05.370Z,40.40
2018-10-09T22:56:08.500Z,36.13
2018-10-09T22:59:11.627Z,36.83
2018-10-09T23:02:14.772Z,38.33
2018-10-09T23:05:17.863Z,36.87
2018-10-09T23:08:20.978Z,35.37
2018-10-09T23:11:24.115Z,40.40
2018-10-09T23:14:27.258Z,40.20
2018-10-09T23:17:30.488Z,38.07
2018-10-09T23:20:33.614Z,38.80
2018-10-09T23:23:37.119Z,39.50
2018-10-09T23:26:40.227Z,41.23
2018-10-09T23:29:43.350Z,44.13
2018-10-09T23:32:46.547Z,43.50
2018-10-09T23:35:49.648Z,43.30
2018-10-09T23:38:52.778Z,41.67
2018-10-09T23:41:55.933Z,43.73
2018-10-09T23:44:59.065Z,41.97
2018-10-09T23:48:02.240Z,47.10
2018-10-09T23:51:05.342Z,41.73
2018-10-09T23:54:08.454Z,41.43
2018-10-09T23:57:11.594Z,42.57
